x

Chautauqua County/dunkirk Weather Station

11:53pm - Tue 25th Nov 2014 All times are CST. -6 hours from GMT.

  • Wind
    7mph
  • Air Temp 35°f
  • Sea Pressure 1022mb
  • Chautauqua County/dunkirk
  • Chautauqua County/dunkirk

More Historic Weather Station data

Upgrade to MSW Pro to gain access to the past 30 days of data for over 8000 Wavebouys and Weather Stations around the globe.

Join Pro

Comparision Forecast

View Surf forecast
   
Tue 11/25 11:53pm 7
mph
1022mb 35f
10:53pm 7
mph
1022.4mb 35f
9:53pm 6
mph
1023mb 36f
8:53pm 7
mph
1022.4mb 36f
7:53pm 9 20 mph 1021.7mb 36f
6:53pm 16 27 mph 1021mb 37f
5:53pm 20 31 mph 1019.6mb 37f
4:53pm 16 24 mph 1018.6mb 37f
3:53pm 21 31 mph 1018mb 38f
2:53pm 17 31 mph 1016.6mb 38f
2:24pm 17 25 mph 1016.3mb 38f
1:53pm 16 23 mph 1015.9mb 39f
1:06pm 18 27 mph 1015.6mb 39f
12:53pm 22 31 mph 1015.2mb 39f
12:50pm 15 24 mph 1015.2mb 39f
11:53am 20 25 mph 1014.9mb 40f
10:53am 20 30 mph 1014.6mb 39f
9:53am 18 31 mph 1014.2mb 39f
8:53am 18 27 mph 1013.2mb 39f
7:53am 22 35 mph 1013.2mb 39f
6:53am 17 25 mph 1012.2mb 39f
5:53am 17 24 mph 1011.2mb 38f
4:53am 21 30 mph 1010.8mb 39f
3:53am 17 25 mph 1010.2mb 40f
2:53am 17 29 mph 1009.5mb 41f
1:53am 20 29 mph 1009.1mb 41f
12:53am 14 24 mph 1007.8mb 42f
Mon 11/24 11:53pm 16 27 mph 1007.1mb 42f
10:53pm 23 32 mph 1006.8mb 44f
9:53pm 21 36 mph 1005.4mb 45f
8:53pm 22 36 mph 1004.4mb 45f
7:53pm 15 24 mph 1003.7mb 44f
6:53pm 16 28 mph 1002.4mb 45f
5:53pm 21 32 mph 1001.4mb 46f
4:53pm 24 35 mph 999.7mb 48f
3:53pm 23 38 mph 997.3mb 51f
2:53pm 25 39 mph 993.9mb 59f
1:53pm 16 25 mph 993.2mb 52f
1:26pm 22 35 mph 992.6mb 53f
12:53pm 23 39 mph 990.5mb 65f
11:53am 22 39 mph 990.5mb 65f
10:53am 29 39 mph 990.9mb 66f
9:53am 22 39 mph 991.5mb 64f
8:53am 24 46 mph 991.9mb 63f
7:53am 21 27 mph 992.6mb 60f
6:53am 18 27 mph 992.9mb 58f
5:53am 24 39 mph 991.9mb 58f
4:53am 28 39 mph 991.2mb 57f
3:53am 25 46 mph 991.2mb 56f
2:53am 28 41 mph 991.9mb 56f
1:53am 23 38 mph 993.6mb 55f
12:53am 25 39 mph 994.6mb 52f
Sun 11/23 11:53pm 25 41 mph 995.9mb 51f
10:53pm 22 38 mph 999mb 51f
9:53pm 25 41 mph 1002mb 54f
8:53pm 20 24 mph 1003.4mb 54f
7:53pm 5
mph
1005.1mb 52f
6:53pm 12
mph
1006.8mb 51f
5:53pm 20
mph
1008.8mb 51f
4:53pm 15 23 mph 1009.1mb 50f
3:53pm 15 24 mph 1010.2mb 50f
2:53pm 8
mph
1011.9mb 51f
1:53pm 10 22 mph 1012.5mb 50f
12:53pm 10 23 mph 1013.9mb 47f
11:53am 18 22 mph 1014.9mb 47f
10:53am 14 22 mph 1016.3mb 45f
10:15am 14 23 mph 1018mb 45f
9:53am 10 22 mph 1017.6mb 45f
8:53am 14 24 mph 1017.6mb 44f
7:53am 12 24 mph 1017.3mb 44f
6:53am 16 25 mph 1016.9mb 47f
5:53am 18 25 mph 1016.6mb 47f
4:53am 17 24 mph 1015.9mb 47f
3:53am 20
mph
1016.3mb 46f
2:53am 12 24 mph 1015.9mb 45f
1:53am 16 25 mph 1016.3mb 45f
12:53am 20
mph
1015.9mb 44f
Sat 11/22 11:53pm 10 23 mph 1016.6mb 43f
10:53pm 18
mph
1015.9mb 44f
9:53pm 17 25 mph 1015.6mb 43f
8:53pm 18 24 mph 1015.9mb 45f
7:53pm 18 24 mph 1015.9mb 42f
6:53pm 20 33 mph 1015.9mb 43f
5:53pm 16 24 mph 1016.3mb 44f
4:53pm 15 24 mph 1016.3mb 42f
3:53pm 12 23 mph 1016.3mb 41f
2:53pm 18 24 mph 1016.3mb 41f
1:53pm 16 24 mph 1016.6mb 41f
12:53pm 13 24 mph 1017.3mb 40f
11:53am 21 37 mph 1017.6mb 38f
10:53am 21 35 mph 1018.6mb 35f
9:53am 22 35 mph 1020.7mb 34f
9:28am 22 35 mph 1020.7mb 33f
9:11am 21 36 mph 1021mb 34f
8:53am 21 35 mph 1021.3mb 33f
7:53am 23 33 mph 1022mb 29f
6:53am 20 33 mph 1023.4mb 28f